Aérodrome :
LOGIN :

S'inscrire | Disclaimer

   EN    FR    IT 

 










Légende :    VFR   VFR Marginal   IFR   IFR Intensif   IFR Très Intensif
Visi : 
Plafond : 
>= 8 km
>= 3000ft
5 à 8 km
1000 à 3000 ft
1500m à 5 km
500 à 1000 ft
800 à 1500m
200 à 500 ft
< 800m
< 200 ft
Symboles :   Orages  Brouillard  Fortes neiges  Fortes précipitations  Vent > 20 kt
SIGMETs :   Divers  Orages  Givrage  Turbulence  Onde Orograph.  Cendres Volcan.






- Altitude de l'aérodrome : 65 ft
- Code IATA : PIK


EGPK - Glasgow Prestwick

DERNIER METAR :
  • 271450Z 27015KT 9999 VCSH FEW015CB SCT024 05/01 Q1003

METARs EXPIRÉS :
  • 271420Z 27020G32KT 9999 -SHRA FEW008 FEW015CB SCT020 05/01 Q1003
  • 271350Z 27017KT 9999 FEW015CB FEW025 05/01 Q1002
  • 271320Z 30024G42KT 9999 SHGS SCT015CB SCT035 06/01 Q1002
  • 271250Z 00000KT 9999 FEW015CB SCT025 04/01 Q1002
  • 271220Z 27012KT 9999 FEW015CB SCT025 05/01 Q1002

TAF AMD TAF EGPK
Valide du 27 à 13h jusqu'au 28 à 12h UTC


271328Z 2713/2812 23009KT 9999 FEW010 SCT020
TEMPO 2713/2722 29025G35KT 6000 SHGS SHRASN BKN012CB
TEMPO 2806/2812 5000 RA BKN010
PROB40
TEMPO 2806/2812 4000 RASN BKN008
BECMG 2809/2812 13010KT



MET'MAP, la Météo Aéronautique d'un coup d'oeil ! - Copyright ORBIFLY Décembre 2007 - Disclaimer

ORBIFLY MET'MAP TEAM :

Programmation & Développement : Alexandra Zaïnal
Sur une idée originale de : Baudouin d'Aumeries
Assistance à la programmation : Marc-Olivier Méhu
Soutien technique & logistique : Manuel Goepfert

Contact : metmap@orbifly.com




SOURCES & CREDITS :

   NOAA